RORH(METAR)
12/11 14:00
RORH 110500Z 33011KT 9999 SCT007 BKN012 26/24 Q1014 RMK A2995=
戻る
トップページへ戻る
IMOC Co,.Ltd.